createdAt,value
2023-03-29T00:00:02.505Z,101681.47
2023-03-29T00:00:35.878Z,101680.03
2023-03-29T00:01:07.957Z,101678.47
2023-03-29T00:01:42.299Z,101681.47
2023-03-29T00:02:17.073Z,101681.16
2023-03-29T00:02:49.037Z,101681.47
2023-03-29T00:03:22.302Z,101683.06
2023-03-29T00:04:02.857Z,101683.38
2023-03-29T00:04:41.654Z,101691.66
2023-03-29T00:05:15.348Z,101682.91
2023-03-29T00:06:39.093Z,101683.53
2023-03-29T00:07:11.136Z,101678.13
2023-03-29T00:07:42.982Z,101680.53
2023-03-29T00:08:15.196Z,101680.84
2023-03-29T00:08:47.097Z,101675.44
2023-03-29T00:09:20.363Z,101672.41
2023-03-29T00:09:54.580Z,101681.28
2023-03-29T00:10:26.570Z,101683.22
2023-03-29T00:11:02.786Z,101676.22
2023-03-29T00:11:37.936Z,101675.44
2023-03-29T00:12:11.454Z,101681.28
2023-03-29T00:12:43.171Z,101672.41
2023-03-29T00:13:17.889Z,101677.34
2023-03-29T00:13:50.740Z,101679.25
2023-03-29T00:14:22.692Z,101675.13
2023-03-29T00:14:54.692Z,101680.19
2023-03-29T00:15:26.929Z,101673.97
2023-03-29T00:15:58.988Z,101668.56
2023-03-29T00:16:37.069Z,101666.22
2023-03-29T00:17:08.583Z,101670.47
2023-03-29T00:17:43.459Z,101680.19
2023-03-29T00:18:18.359Z,101670.81
2023-03-29T00:18:50.582Z,101669.53
2023-03-29T00:19:22.804Z,101666.53
2023-03-29T00:19:54.327Z,101670.66
2023-03-29T00:20:26.074Z,101663.34
2023-03-29T00:20:59.575Z,101661.91
2023-03-29T00:21:31.434Z,101662.34
2023-03-29T00:22:05.823Z,101666.53
2023-03-29T00:22:40.549Z,101667.31
2023-03-29T00:23:12.133Z,101655.88
2023-03-29T00:23:44.180Z,101669.22
2023-03-29T00:24:16.548Z,101665.25
2023-03-29T00:24:49.171Z,101668.75
2023-03-29T00:25:23.018Z,101662.34
2023-03-29T00:26:01.323Z,101660.00
2023-03-29T00:26:34.946Z,101662.03
2023-03-29T00:27:06.550Z,101647.13
2023-03-29T00:27:38.523Z,101651.09
2023-03-29T00:28:10.982Z,101654.59
2023-03-29T00:28:42.643Z,101649.97
2023-03-29T00:29:15.168Z,101647.72
2023-03-29T00:29:47.401Z,101641.88
2023-03-29T00:30:19.180Z,101650.78
2023-03-29T00:30:53.578Z,101646.47
2023-03-29T00:31:26.302Z,101643.09
2023-03-29T00:31:58.879Z,101637.56
2023-03-29T00:32:31.773Z,101630.56
2023-03-29T00:33:03.927Z,101629.91
2023-03-29T00:33:35.850Z,101635.78
2023-03-29T00:34:07.933Z,101632.59
2023-03-29T00:34:44.266Z,101636.91
2023-03-29T00:35:17.768Z,101638.00
2023-03-29T00:35:49.364Z,101630.88
2023-03-29T00:36:22.187Z,101632.16
2023-03-29T00:37:00.893Z,101625.00
2023-03-29T00:37:35.790Z,101627.72
2023-03-29T00:38:08.760Z,101627.22
2023-03-29T00:38:43.785Z,101636.78
2023-03-29T00:39:15.316Z,101623.41
2023-03-29T00:39:49.780Z,101621.19
2023-03-29T00:40:21.346Z,101621.03
2023-03-29T00:40:52.742Z,101621.19
2023-03-29T00:41:25.101Z,101627.38
2023-03-29T00:41:57.064Z,101623.41
2023-03-29T00:42:28.838Z,101621.19
2023-03-29T00:43:01.147Z,101625.63
2023-03-29T00:43:59.380Z,101626.44
2023-03-29T00:45:06.670Z,101625.63
2023-03-29T00:45:38.907Z,101626.44
2023-03-29T00:46:11.230Z,101617.38
2023-03-29T00:46:43.326Z,101620.88
2023-03-29T00:47:16.370Z,101619.28
2023-03-29T00:48:11.097Z,101614.19
2023-03-29T00:48:42.698Z,101609.56
2023-03-29T00:49:17.203Z,101610.38
2023-03-29T00:49:52.716Z,101615.13
2023-03-29T00:50:30.984Z,101617.69
2023-03-29T00:51:10.272Z,101617.38
2023-03-29T00:51:50.154Z,101618.97
2023-03-29T00:52:22.844Z,101613.38
2023-03-29T00:53:42.586Z,101613.56
2023-03-29T00:54:18.832Z,101616.25
2023-03-29T00:54:55.990Z,101620.53
2023-03-29T00:55:32.550Z,101615.94
2023-03-29T00:56:14.393Z,101609.72
2023-03-29T00:56:50.513Z,101613.22
2023-03-29T00:57:25.879Z,101610.38
2023-03-29T00:58:04.677Z,101607.66
2023-03-29T00:59:07.234Z,101610.19
2023-03-29T00:59:41.416Z,101608.25
2023-03-29T01:00:18.132Z,101609.72
2023-03-29T01:01:02.290Z,101605.75
2023-03-29T01:01:46.688Z,101612.91
2023-03-29T01:02:26.240Z,101610.97
2023-03-29T01:03:00.137Z,101603.06
2023-03-29T01:03:41.583Z,101598.91
2023-03-29T01:04:24.298Z,101602.72
2023-03-29T01:05:05.567Z,101607.50
2023-03-29T01:05:42.090Z,101602.72
2023-03-29T01:06:19.829Z,101599.72
2023-03-29T01:07:09.843Z,101601.41
2023-03-29T01:07:53.845Z,101588.88
2023-03-29T01:08:53.428Z,101595.53
2023-03-29T01:09:30.039Z,101599.03
2023-03-29T01:10:17.636Z,101595.53
2023-03-29T01:10:59.052Z,101589.69
2023-03-29T01:11:37.433Z,101589.00
2023-03-29T01:12:17.195Z,101591.72
2023-03-29T01:12:57.314Z,101585.06
2023-03-29T01:13:49.230Z,101572.66
2023-03-29T01:14:25.406Z,101584.41
2023-03-29T01:15:05.796Z,101569.63
2023-03-29T01:15:42.607Z,101568.38
2023-03-29T01:16:18.906Z,101575.81
2023-03-29T01:16:50.651Z,101566.13
2023-03-29T01:17:28.042Z,101569.81
2023-03-29T01:18:02.236Z,101585.88
2023-03-29T01:18:34.008Z,101576.59
2023-03-29T01:19:10.276Z,101575.97
2023-03-29T01:19:53.844Z,101574.38
2023-03-29T01:20:46.851Z,101574.84
2023-03-29T01:21:44.428Z,101584.53
2023-03-29T01:22:30.796Z,101578.03
2023-03-29T01:23:17.236Z,101575.97
2023-03-29T01:24:11.552Z,101571.81
2023-03-29T01:25:12.621Z,101565.13
2023-03-29T01:26:27.076Z,101569.59
2023-03-29T01:27:09.749Z,101568.00
2023-03-29T01:27:51.484Z,101570.22
2023-03-29T01:28:34.267Z,101572.63
2023-03-29T01:29:34.097Z,101571.81
2023-03-29T01:30:12.747Z,101574.53
2023-03-29T01:30:56.553Z,101568.78
2023-03-29T01:31:37.169Z,101575.00
2023-03-29T01:32:23.859Z,101574.69
2023-03-29T01:33:06.108Z,101566.09
2023-03-29T01:33:43.882Z,101570.38
2023-03-29T01:34:25.931Z,101567.34
2023-03-29T01:35:00.193Z,101565.44
2023-03-29T01:35:35.774Z,101569.72
2023-03-29T01:36:21.043Z,101570.84
2023-03-29T01:37:00.745Z,101575.16
2023-03-29T01:37:42.032Z,101571.19
2023-03-29T01:38:23.868Z,101573.56
2023-03-29T01:39:05.015Z,101570.22
2023-03-29T01:39:37.476Z,101565.44
2023-03-29T01:40:09.663Z,101569.72
2023-03-29T01:40:42.148Z,101568.63
2023-03-29T01:41:13.819Z,101570.22
2023-03-29T01:41:56.243Z,101563.22
2023-03-29T01:42:31.247Z,101571.78
2023-03-29T01:43:08.941Z,101565.28
2023-03-29T01:43:47.414Z,101567.97
2023-03-29T01:44:32.212Z,101561.13
2023-03-29T01:45:10.440Z,101564.63
2023-03-29T01:46:00.267Z,101560.66
2023-03-29T01:46:45.879Z,101555.56
2023-03-29T01:47:42.655Z,101561.91
2023-03-29T01:48:27.951Z,101554.91
2023-03-29T01:49:17.759Z,101558.06
2023-03-29T01:50:17.817Z,101568.09
2023-03-29T01:51:01.298Z,101553.81
2023-03-29T01:51:44.172Z,101552.34
2023-03-29T01:52:24.252Z,101551.09
2023-03-29T01:53:36.399Z,101546.44
2023-03-29T01:54:16.384Z,101549.63
2023-03-29T01:54:54.660Z,101542.63
2023-03-29T01:55:33.590Z,101546.59
2023-03-29T01:56:19.943Z,101548.03
2023-03-29T01:56:52.472Z,101548.97
2023-03-29T01:57:26.815Z,101537.22
2023-03-29T01:58:00.889Z,101552.81
2023-03-29T01:58:38.898Z,101547.38
2023-03-29T01:59:14.888Z,101545.47
2023-03-29T01:59:48.171Z,101547.53
2023-03-29T02:00:24.646Z,101547.53
2023-03-29T02:00:58.118Z,101548.97
2023-03-29T02:01:38.602Z,101550.25
2023-03-29T02:02:14.960Z,101540.88
2023-03-29T02:02:48.789Z,101544.03
2023-03-29T02:03:24.397Z,101544.19
2023-03-29T02:04:03.217Z,101548.47
2023-03-29T02:04:39.971Z,101540.22
2023-03-29T02:05:15.054Z,101536.38
2023-03-29T02:05:47.292Z,101533.22
2023-03-29T02:06:27.142Z,101536.72
2023-03-29T02:07:01.785Z,101539.56
2023-03-29T02:07:40.053Z,101540.34
2023-03-29T02:08:15.547Z,101529.06
2023-03-29T02:08:48.415Z,101537.00
2023-03-29T02:09:21.166Z,101533.34
2023-03-29T02:09:54.340Z,101537.00
2023-03-29T02:10:26.862Z,101536.53
2023-03-29T02:10:58.578Z,101542.41
2023-03-29T02:11:33.266Z,101535.75
2023-03-29T02:12:07.832Z,101522.84
2023-03-29T02:12:39.411Z,101534.63
2023-03-29T02:13:11.644Z,101535.88
2023-03-29T02:13:43.273Z,101535.88
2023-03-29T02:14:15.511Z,101526.50
2023-03-29T02:14:47.474Z,101531.59
2023-03-29T02:15:21.206Z,101535.09
2023-03-29T02:15:53.129Z,101534.78
2023-03-29T02:16:25.147Z,101534.28
2023-03-29T02:16:57.097Z,101537.47
2023-03-29T02:17:28.849Z,101524.91
2023-03-29T02:18:00.499Z,101530.81
2023-03-29T02:18:32.286Z,101530.00
2023-03-29T02:19:09.067Z,101526.03
2023-03-29T02:19:47.234Z,101525.06
2023-03-29T02:20:27.528Z,101527.75
2023-03-29T02:20:59.703Z,101528.09
2023-03-29T02:21:40.975Z,101523.00
2023-03-29T02:22:15.381Z,101525.72
2023-03-29T02:22:54.995Z,101527.31
2023-03-29T02:23:45.485Z,101527.75
2023-03-29T02:24:19.313Z,101525.84
2023-03-29T02:24:54.778Z,101522.34
2023-03-29T02:25:26.814Z,101520.91
2023-03-29T02:25:58.792Z,101520.91
2023-03-29T02:26:30.872Z,101516.63
2023-03-29T02:27:03.453Z,101512.97
2023-03-29T02:27:37.751Z,101519.66
2023-03-29T02:28:58.700Z,101525.19
2023-03-29T02:29:30.706Z,101525.53
2023-03-29T02:30:03.024Z,101511.84
2023-03-29T02:31:07.959Z,101509.72
2023-03-29T02:31:53.888Z,101521.34
2023-03-29T02:32:35.303Z,101523.94
2023-03-29T02:33:15.707Z,101522.47
2023-03-29T02:33:53.204Z,101523.25
2023-03-29T02:34:37.604Z,101526.75
2023-03-29T02:35:16.813Z,101518.66
2023-03-29T02:36:31.540Z,101514.81
2023-03-29T02:37:11.828Z,101506.22
2023-03-29T02:37:47.836Z,101511.66
2023-03-29T02:38:21.137Z,101506.22
2023-03-29T02:38:53.492Z,101502.75
2023-03-29T02:39:27.965Z,101498.31
2023-03-29T02:40:00.837Z,101508.94
2023-03-29T02:40:34.978Z,101509.41
2023-03-29T02:41:07.880Z,101507.03
2023-03-29T02:41:41.514Z,101505.47
2023-03-29T02:42:17.003Z,101508.19
2023-03-29T02:42:49.197Z,101498.00
2023-03-29T02:43:26.096Z,101502.28
2023-03-29T02:43:59.565Z,101508.94
2023-03-29T02:44:33.427Z,101517.19
2023-03-29T02:45:08.294Z,101511.66
2023-03-29T02:45:41.847Z,101512.44
2023-03-29T02:46:15.455Z,101515.94
2023-03-29T02:46:50.859Z,101513.22
2023-03-29T02:47:28.701Z,101504.31
2023-03-29T02:48:10.713Z,101516.88
2023-03-29T02:48:46.557Z,101503.19
2023-03-29T02:49:18.150Z,101501.28
2023-03-29T02:49:49.913Z,101503.53
2023-03-29T02:50:22.916Z,101500.81
2023-03-29T02:50:58.475Z,101504.00
2023-03-29T02:51:34.319Z,101506.84
2023-03-29T02:52:13.691Z,101504.13
2023-03-29T02:52:53.698Z,101498.72
2023-03-29T02:53:40.325Z,101502.22
2023-03-29T02:54:20.941Z,101494.09
2023-03-29T02:54:55.688Z,101501.09
2023-03-29T02:55:34.410Z,101501.91
2023-03-29T02:56:09.596Z,101503.81
2023-03-29T02:56:43.577Z,101494.09
2023-03-29T02:57:15.244Z,101499.19
2023-03-29T02:57:47.093Z,101496.00
2023-03-29T02:58:19.755Z,101496.00
2023-03-29T02:58:51.678Z,101498.72
2023-03-29T02:59:24.411Z,101501.44
2023-03-29T02:59:57.474Z,101496.47
2023-03-29T03:00:29.497Z,101501.56
2023-03-29T03:01:02.689Z,101488.69
2023-03-29T03:01:36.762Z,101485.66
2023-03-29T03:02:08.577Z,101495.38
2023-03-29T03:02:40.318Z,101495.38
2023-03-29T03:03:13.323Z,101486.31
2023-03-29T03:03:45.243Z,101487.91
2023-03-29T03:04:18.925Z,101485.19
2023-03-29T03:04:50.927Z,101492.66
2023-03-29T03:05:24.209Z,101491.88
2023-03-29T03:05:55.668Z,101487.91
2023-03-29T03:06:29.070Z,101489.00
2023-03-29T03:07:00.826Z,101489.63
2023-03-29T03:07:34.010Z,101494.25
2023-03-29T03:08:07.456Z,101489.63
2023-03-29T03:08:40.071Z,101494.75
2023-03-29T03:09:11.797Z,101497.44
2023-03-29T03:09:43.791Z,101492.81
2023-03-29T03:10:16.395Z,101482.63
2023-03-29T03:10:48.285Z,101485.81
2023-03-29T03:11:20.034Z,101482.28
2023-03-29T03:11:51.414Z,101483.13
2023-03-29T03:12:23.024Z,101478.66
2023-03-29T03:12:54.677Z,101483.41
2023-03-29T03:13:26.169Z,101476.41
2023-03-29T03:13:57.965Z,101479.59
2023-03-29T03:14:29.740Z,101477.22
2023-03-29T03:15:02.176Z,101480.09
2023-03-29T03:15:37.753Z,101471.34
2023-03-29T03:16:10.646Z,101484.38
2023-03-29T03:16:43.191Z,101470.38
2023-03-29T03:17:15.038Z,101469.09
2023-03-29T03:17:46.801Z,101474.69
2023-03-29T03:18:18.316Z,101472.59
2023-03-29T03:18:51.493Z,101469.41
2023-03-29T03:19:23.152Z,101469.41
2023-03-29T03:19:54.635Z,101471.78
2023-03-29T03:20:26.561Z,101473.38
2023-03-29T03:21:01.916Z,101475.78
2023-03-29T03:21:35.303Z,101465.59
2023-03-29T03:22:10.273Z,101462.56
2023-03-29T03:22:48.941Z,101459.72
2023-03-29T03:23:20.885Z,101462.72
2023-03-29T03:23:53.599Z,101459.84
2023-03-29T03:24:25.219Z,101461.94
2023-03-29T03:24:57.346Z,101462.56
2023-03-29T03:25:30.003Z,101457.63
2023-03-29T03:26:01.639Z,101460.19
2023-03-29T03:26:33.913Z,101459.84
2023-03-29T03:27:06.265Z,101458.25
2023-03-29T03:27:38.902Z,101463.06
2023-03-29T03:28:10.584Z,101459.06
2023-03-29T03:28:42.314Z,101464.19
2023-03-29T03:29:15.727Z,101462.56
2023-03-29T03:29:47.362Z,101453.19
2023-03-29T03:30:19.517Z,101463.34
2023-03-29T03:30:51.637Z,101459.56
2023-03-29T03:31:23.250Z,101463.34
2023-03-29T03:31:55.633Z,101455.88
2023-03-29T03:32:27.452Z,101468.13
2023-03-29T03:32:58.948Z,101455.22
2023-03-29T03:33:30.537Z,101464.63
2023-03-29T03:34:02.335Z,101456.84
2023-03-29T03:34:35.098Z,101453.34
2023-03-29T03:35:07.619Z,101466.56
2023-03-29T03:35:39.193Z,101458.75
2023-03-29T03:36:11.483Z,101460.03
2023-03-29T03:36:43.246Z,101457.94
2023-03-29T03:37:15.489Z,101459.56
2023-03-29T03:37:48.447Z,101465.44
2023-03-29T03:38:20.297Z,101466.56
2023-03-29T03:38:53.327Z,101461.94
2023-03-29T03:39:25.111Z,101459.22
2023-03-29T03:39:56.590Z,101458.75
2023-03-29T03:40:28.455Z,101463.53
2023-03-29T03:41:01.239Z,101452.22
2023-03-29T03:41:34.645Z,101457.63
2023-03-29T03:42:08.341Z,101452.53
2023-03-29T03:42:41.345Z,101461.59
2023-03-29T03:43:12.841Z,101461.13
2023-03-29T03:43:48.640Z,101459.69
2023-03-29T03:44:20.917Z,101458.56
2023-03-29T03:44:55.995Z,101461.28
2023-03-29T03:45:28.009Z,101463.53
2023-03-29T03:46:00.280Z,101462.41
2023-03-29T03:46:32.087Z,101463.53
2023-03-29T03:47:05.900Z,101467.03
2023-03-29T03:47:38.185Z,101463.53
2023-03-29T03:48:09.800Z,101461.28
2023-03-29T03:48:41.760Z,101464.78
2023-03-29T03:49:13.378Z,101457.31
2023-03-29T03:49:45.293Z,101465.09
2023-03-29T03:50:17.736Z,101458.91
2023-03-29T03:50:54.980Z,101461.28
2023-03-29T03:51:27.091Z,101451.44
2023-03-29T03:51:59.036Z,101453.50
2023-03-29T03:52:30.604Z,101459.38
2023-03-29T03:53:02.151Z,101465.56
2023-03-29T03:53:34.044Z,101459.38
2023-03-29T03:54:05.656Z,101462.88
2023-03-29T03:54:38.899Z,101458.91
2023-03-29T03:55:11.020Z,101462.88
2023-03-29T03:55:43.063Z,101456.53
2023-03-29T03:56:17.860Z,101462.88
2023-03-29T03:56:53.064Z,101467.81
2023-03-29T03:57:27.681Z,101468.13
2023-03-29T03:58:00.011Z,101462.72
2023-03-29T03:58:31.518Z,101468.28
2023-03-29T03:59:03.484Z,101467.47
2023-03-29T03:59:35.345Z,101456.06
2023-03-29T04:00:19.992Z,101460.47
2023-03-29T04:00:51.550Z,101451.91
2023-03-29T04:01:24.055Z,101455.41
2023-03-29T04:01:55.693Z,101459.38
2023-03-29T04:02:27.477Z,101464.31
2023-03-29T04:02:59.349Z,101463.84
2023-03-29T04:03:31.858Z,101462.06
2023-03-29T04:04:03.659Z,101462.72
2023-03-29T04:04:38.804Z,101456.53
2023-03-29T04:05:13.715Z,101454.28
2023-03-29T04:05:46.752Z,101459.03
2023-03-29T04:06:19.117Z,101453.94
2023-03-29T04:06:51.280Z,101446.50
2023-03-29T04:07:25.673Z,101453.50
2023-03-29T04:07:57.712Z,101455.53
2023-03-29T04:08:30.285Z,101453.94
2023-03-29T04:09:02.361Z,101456.66
2023-03-29T04:09:34.666Z,101454.28
2023-03-29T04:10:08.974Z,101460.94
2023-03-29T04:10:41.725Z,101452.38
2023-03-29T04:11:14.739Z,101453.50
2023-03-29T04:11:46.574Z,101452.69
2023-03-29T04:12:18.373Z,101456.97
2023-03-29T04:12:50.377Z,101459.81
2023-03-29T04:13:22.610Z,101464.31
2023-03-29T04:13:54.054Z,101457.78
2023-03-29T04:14:26.790Z,101453.50
2023-03-29T04:14:59.470Z,101457.78
2023-03-29T04:15:32.528Z,101451.72
2023-03-29T04:16:05.435Z,101454.41
2023-03-29T04:16:36.993Z,101448.66
2023-03-29T04:17:09.081Z,101458.69
2023-03-29T04:17:40.650Z,101455.19
2023-03-29T04:18:12.667Z,101446.94
2023-03-29T04:18:44.505Z,101450.13
2023-03-29T04:19:16.195Z,101455.06
2023-03-29T04:19:48.089Z,101456.66
2023-03-29T04:20:19.633Z,101452.03
2023-03-29T04:20:51.942Z,101452.81
2023-03-29T04:21:23.799Z,101448.22
2023-03-29T04:21:55.401Z,101442.34
2023-03-29T04:22:27.366Z,101449.75
2023-03-29T04:22:59.268Z,101452.16
2023-03-29T04:23:31.044Z,101444.34
2023-03-29T04:24:02.770Z,101443.91
2023-03-29T04:24:34.173Z,101445.50
2023-03-29T04:25:06.788Z,101437.38
2023-03-29T04:25:38.233Z,101439.63
2023-03-29T04:26:09.773Z,101438.03
2023-03-29T04:26:41.480Z,101442.78
2023-03-29T04:27:13.331Z,101444.72
2023-03-29T04:27:46.163Z,101440.41
2023-03-29T04:28:17.798Z,101443.91
2023-03-29T04:28:49.323Z,101444.03
2023-03-29T04:29:21.037Z,101437.38
2023-03-29T04:29:52.523Z,101430.72
2023-03-29T04:30:24.118Z,101440.19
2023-03-29T04:30:55.715Z,101438.59
2023-03-29T04:31:28.144Z,101442.00
2023-03-29T04:31:59.660Z,101447.53
2023-03-29T04:32:31.178Z,101443.59
2023-03-29T04:33:02.795Z,101435.09
2023-03-29T04:33:34.591Z,101445.94
2023-03-29T04:34:06.140Z,101445.13
2023-03-29T04:34:38.081Z,101428.47
2023-03-29T04:35:10.647Z,101437.16
2023-03-29T04:35:42.534Z,101433.19
2023-03-29T04:36:15.880Z,101434.78
2023-03-29T04:36:50.346Z,101437.81
2023-03-29T04:37:22.408Z,101431.59
2023-03-29T04:37:54.680Z,101437.81
2023-03-29T04:38:26.671Z,101434.78
2023-03-29T04:39:01.624Z,101432.75
2023-03-29T04:39:34.326Z,101440.66
2023-03-29T04:40:10.130Z,101431.28
2023-03-29T04:40:42.233Z,101434.31
2023-03-29T04:41:15.288Z,101422.69
2023-03-29T04:41:47.287Z,101420.34
2023-03-29T04:42:19.419Z,101423.94
2023-03-29T04:42:51.784Z,101421.56
2023-03-29T04:43:23.907Z,101423.16
2023-03-29T04:43:56.216Z,101423.50
2023-03-29T04:44:28.260Z,101426.00
2023-03-29T04:45:01.173Z,101425.66
2023-03-29T04:45:32.832Z,101429.50
2023-03-29T04:46:07.505Z,101431.41
2023-03-29T04:46:40.412Z,101432.22
2023-03-29T04:47:13.225Z,101426.00
2023-03-29T04:47:46.401Z,101438.88
2023-03-29T04:48:18.353Z,101429.81
2023-03-29T04:48:50.141Z,101434.13
2023-03-29T04:49:22.485Z,101435.72
2023-03-29T04:49:56.496Z,101435.25
2023-03-29T04:50:28.586Z,101433.00
2023-03-29T04:51:00.520Z,101433.00
2023-03-29T04:51:33.220Z,101436.50
2023-03-29T04:52:05.331Z,101441.59
2023-03-29T04:52:37.144Z,101429.50
2023-03-29T04:53:08.721Z,101425.66
2023-03-29T04:53:40.735Z,101430.75
2023-03-29T04:54:12.519Z,101424.09
2023-03-29T04:54:44.203Z,101427.25
2023-03-29T04:55:16.051Z,101424.41
2023-03-29T04:55:47.912Z,101424.88
2023-03-29T04:56:19.747Z,101431.41
2023-03-29T04:56:52.651Z,101426.78
2023-03-29T04:57:24.652Z,101422.03
2023-03-29T04:57:56.387Z,101435.72
2023-03-29T04:58:32.167Z,101434.91
2023-03-29T04:59:04.208Z,101433.78
2023-03-29T04:59:35.716Z,101421.72
2023-03-29T05:00:15.464Z,101424.53
2023-03-29T05:00:47.319Z,101430.75
2023-03-29T05:01:18.960Z,101429.16
2023-03-29T05:01:50.498Z,101432.34
2023-03-29T05:02:22.225Z,101428.38
2023-03-29T05:02:54.454Z,101429.97
2023-03-29T05:03:44.994Z,101429.63
2023-03-29T05:04:18.392Z,101430.44
2023-03-29T05:04:50.609Z,101433.94
2023-03-29T05:05:22.206Z,101428.03
2023-03-29T05:05:53.870Z,101428.03
2023-03-29T05:06:25.544Z,101426.47
2023-03-29T05:06:57.721Z,101429.16
2023-03-29T05:07:29.827Z,101424.53
2023-03-29T05:08:01.792Z,101426.13
2023-03-29T05:08:35.182Z,101421.06
2023-03-29T05:09:08.883Z,101423.44
2023-03-29T05:09:41.830Z,101414.38
2023-03-29T05:10:13.661Z,101415.16
2023-03-29T05:10:45.555Z,101427.25
2023-03-29T05:11:17.786Z,101422.31
2023-03-29T05:11:50.196Z,101424.22
2023-03-29T05:12:22.384Z,101421.06
2023-03-29T05:12:54.377Z,101413.72
2023-03-29T05:13:26.127Z,101421.19
2023-03-29T05:14:02.589Z,101417.69
2023-03-29T05:14:34.503Z,101416.44
2023-03-29T05:15:07.070Z,101420.38
2023-03-29T05:15:41.159Z,101408.63
2023-03-29T05:16:12.988Z,101410.69
2023-03-29T05:16:44.871Z,101416.56
2023-03-29T05:17:16.405Z,101402.88
2023-03-29T05:17:48.880Z,101417.69
2023-03-29T05:18:21.061Z,101413.06
2023-03-29T05:18:52.793Z,101409.56
2023-03-29T05:19:24.495Z,101407.50
2023-03-29T05:19:56.414Z,101406.38
2023-03-29T05:20:28.647Z,101406.06
2023-03-29T05:21:00.533Z,101416.88
2023-03-29T05:21:33.541Z,101413.84
2023-03-29T05:22:05.768Z,101409.88
2023-03-29T05:22:38.450Z,101414.66
2023-03-29T05:23:10.828Z,101413.06
2023-03-29T05:23:42.579Z,101415.78
2023-03-29T05:24:14.204Z,101415.44
2023-03-29T05:24:45.778Z,101420.38
2023-03-29T05:25:18.368Z,101417.03
2023-03-29T05:25:51.124Z,101420.53
2023-03-29T05:26:23.454Z,101413.53
2023-03-29T05:26:55.463Z,101415.44
2023-03-29T05:27:28.021Z,101416.56
2023-03-29T05:28:03.595Z,101417.03
2023-03-29T05:28:35.426Z,101417.03
2023-03-29T05:29:08.984Z,101420.53
2023-03-29T05:29:41.109Z,101419.72
2023-03-29T05:30:15.521Z,101423.22
2023-03-29T05:30:48.041Z,101424.03
2023-03-29T05:31:20.219Z,101418.16
2023-03-29T05:31:52.504Z,101428.31
2023-03-29T05:32:24.271Z,101412.72
2023-03-29T05:32:56.072Z,101422.09
2023-03-29T05:33:27.960Z,101414.78
2023-03-29T05:33:59.576Z,101421.97
2023-03-29T05:34:32.214Z,101426.06
2023-03-29T05:35:04.547Z,101425.28
2023-03-29T05:35:36.655Z,101426.41
2023-03-29T05:36:13.687Z,101419.25
2023-03-29T05:36:45.832Z,101427.19
2023-03-29T05:37:18.228Z,101430.22
2023-03-29T05:37:51.933Z,101429.44
2023-03-29T05:38:23.383Z,101435.00
2023-03-29T05:38:55.074Z,101428.78
2023-03-29T05:39:27.076Z,101432.72
2023-03-29T05:40:05.324Z,101428.78
2023-03-29T05:40:37.942Z,101433.84
2023-03-29T05:41:10.811Z,101431.91
2023-03-29T05:41:42.592Z,101427.66
2023-03-29T05:42:15.939Z,101431.91
2023-03-29T05:42:47.944Z,101431.91
2023-03-29T05:43:19.587Z,101425.72
2023-03-29T05:43:51.341Z,101434.28
2023-03-29T05:44:22.953Z,101436.22
2023-03-29T05:44:54.816Z,101431.59
2023-03-29T05:45:28.686Z,101440.19
2023-03-29T05:46:00.522Z,101434.75
2023-03-29T05:46:32.082Z,101428.88
2023-03-29T05:47:03.710Z,101420.75
2023-03-29T05:47:36.255Z,101426.50
2023-03-29T05:48:09.077Z,101425.84
2023-03-29T05:48:40.829Z,101425.03
2023-03-29T05:49:13.159Z,101421.22
2023-03-29T05:49:46.211Z,101427.09
2023-03-29T05:50:18.139Z,101429.47
2023-03-29T05:50:50.532Z,101426.63
2023-03-29T05:51:24.390Z,101429.34
2023-03-29T05:51:56.962Z,101425.19
2023-03-29T05:52:28.743Z,101421.69
2023-03-29T05:53:00.787Z,101424.38
2023-03-29T05:53:32.953Z,101425.50
2023-03-29T05:54:04.858Z,101424.38
2023-03-29T05:54:36.772Z,101427.09
2023-03-29T05:55:09.185Z,101427.88
2023-03-29T05:55:41.383Z,101422.47
2023-03-29T05:56:16.234Z,101433.78
2023-03-29T05:56:47.924Z,101427.56
2023-03-29T05:57:19.598Z,101436.00
2023-03-29T05:57:51.534Z,101430.72
2023-03-29T05:58:23.330Z,101434.09
2023-03-29T05:58:58.741Z,101431.06
2023-03-29T05:59:30.445Z,101431.06
2023-03-29T06:00:05.772Z,101419.75
2023-03-29T06:00:38.549Z,101424.53
2023-03-29T06:01:14.885Z,101422.59
2023-03-29T06:01:49.566Z,101424.97
2023-03-29T06:02:21.404Z,101424.06
2023-03-29T06:02:53.724Z,101420.69
2023-03-29T06:03:27.472Z,101428.94
2023-03-29T06:04:03.965Z,101430.53
2023-03-29T06:04:36.671Z,101427.03
2023-03-29T06:05:09.316Z,101427.81
2023-03-29T06:05:40.828Z,101424.97
2023-03-29T06:06:15.304Z,101423.53
2023-03-29T06:06:47.477Z,101431.31
2023-03-29T06:07:19.061Z,101423.06
2023-03-29T06:07:51.860Z,101427.34
2023-03-29T06:08:23.807Z,101432.91
2023-03-29T06:08:55.927Z,101429.28
2023-03-29T06:09:27.877Z,101433.38
2023-03-29T06:09:59.588Z,101425.91
2023-03-29T06:10:31.265Z,101422.72
2023-03-29T06:11:06.096Z,101432.56
2023-03-29T06:11:38.357Z,101416.19
2023-03-29T06:12:09.888Z,101422.06
2023-03-29T06:12:42.200Z,101431.00
2023-03-29T06:13:13.683Z,101425.56
2023-03-29T06:13:45.349Z,101424.44
2023-03-29T06:14:17.618Z,101429.97
2023-03-29T06:14:49.342Z,101424.78
2023-03-29T06:15:21.507Z,101423.28
2023-03-29T06:15:53.416Z,101428.72
2023-03-29T06:16:25.983Z,101428.72
2023-03-29T06:16:57.490Z,101428.38
2023-03-29T06:17:29.256Z,101422.97
2023-03-29T06:18:04.685Z,101422.97
2023-03-29T06:18:36.785Z,101432.00
2023-03-29T06:19:11.178Z,101430.44
2023-03-29T06:19:44.545Z,101422.63
2023-03-29T06:20:17.186Z,101435.84
2023-03-29T06:20:52.853Z,101438.69
2023-03-29T06:21:26.843Z,101430.09
2023-03-29T06:21:58.267Z,101427.38
2023-03-29T06:22:29.860Z,101430.09
2023-03-29T06:23:02.278Z,101422.75
2023-03-29T06:23:34.032Z,101431.00
2023-03-29T06:24:06.928Z,101422.75
2023-03-29T06:24:39.206Z,101431.34
2023-03-29T06:25:11.114Z,101428.19
2023-03-29T06:25:44.607Z,101427.06
2023-03-29T06:26:16.496Z,101441.97
2023-03-29T06:26:48.099Z,101435.31
2023-03-29T06:27:20.434Z,101443.56
2023-03-29T06:27:52.275Z,101435.78
2023-03-29T06:28:24.276Z,101441.66
2023-03-29T06:28:56.599Z,101434.53
2023-03-29T06:29:28.404Z,101441.19
2023-03-29T06:30:01.022Z,101436.09
2023-03-29T06:30:32.857Z,101439.41
2023-03-29T06:31:05.711Z,101440.19
2023-03-29T06:31:38.090Z,101440.97
2023-03-29T06:32:11.366Z,101441.78
2023-03-29T06:32:43.261Z,101426.97
2023-03-29T06:33:15.580Z,101433.66
2023-03-29T06:33:47.461Z,101432.84
2023-03-29T06:34:19.169Z,101433.66
2023-03-29T06:34:50.985Z,101431.38
2023-03-29T06:35:22.464Z,101430.56
2023-03-29T06:35:54.135Z,101432.16
2023-03-29T06:36:25.956Z,101429.44
2023-03-29T06:36:57.817Z,101431.03